Time;durP1;ratioP1;P1;durP2;ratioP2;P2;SDS_P1;SDS_P2;PMS_P1;PMS_P2;Temp;Humidity;BMP_temperature;BMP_pressure;BME280_temperature;BME280_humidity;BME280_pressure;Samples;Min_cycle;Max_cycle;Signal;HPM_P1;HPM_P2
2023/03/17 00:01:17;;;;;;;5.53;2.85;;;;;;;5.88;84.49;101790.88;4976380;28;20027;-86
2023/03/17 00:03:44;;;;;;;2.75;1.83;;;;;;;5.85;84.29;101790.06;4992553;28;20389;-86
2023/03/17 00:06:15;;;;;;;4.63;2.92;;;;;;;5.78;84.61;101766.16;4992485;28;20201;-86
2023/03/17 00:08:41;;;;;;;3.30;2.08;;;;;;;5.90;84.48;101799.47;4960425;28;20424;-86
2023/03/17 00:11:13;;;;;;;4.88;2.47;;;;;;;5.88;84.41;101796.00;4975851;28;20022;-86
2023/03/17 00:13:39;;;;;;;2.50;1.48;;;;;;;5.93;84.60;101803.72;4976711;28;20030;-86
2023/03/17 00:16:09;;;;;;;1.85;1.38;;;;;;;5.94;84.41;101797.69;4959862;28;20034;-86
2023/03/17 00:18:35;;;;;;;2.88;1.80;;;;;;;5.91;84.59;101801.16;4960224;28;20034;-86
2023/03/17 00:21:00;;;;;;;3.15;2.17;;;;;;;5.98;84.85;101802.78;4976051;28;20037;-87
2023/03/17 00:23:26;;;;;;;3.78;1.52;;;;;;;5.82;84.88;101784.97;4959484;28;20550;-86
2023/03/17 00:25:53;;;;;;;1.92;1.75;;;;;;;5.95;84.93;101807.94;4975701;28;20031;-86
2023/03/17 00:28:22;;;;;;;4.10;3.47;;;;;;;5.88;83.86;101780.59;4960064;28;20065;-86
2023/03/17 00:30:48;;;;;;;3.08;2.13;;;;;;;5.96;83.65;101812.22;4991987;28;20520;-87
2023/03/17 00:33:18;;;;;;;6.15;3.70;;;;;;;5.94;84.26;101805.41;4975434;28;20077;-87
2023/03/17 00:35:45;;;;;;;5.18;2.80;;;;;;;5.97;83.89;101806.22;4960155;28;20057;-86
2023/03/17 00:38:14;;;;;;;3.60;3.00;;;;;;;5.86;83.82;101786.63;4975748;28;20026;-86
2023/03/17 00:40:39;;;;;;;3.85;2.60;;;;;;;5.98;83.79;101813.03;4991620;28;21271;-87
2023/03/17 00:43:07;;;;;;;6.78;4.30;;;;;;;5.91;83.63;101803.72;4959520;28;20088;-86
2023/03/17 00:45:33;;;;;;;6.80;4.03;;;;;;;5.86;84.21;101805.44;4975671;28;20042;-86
2023/03/17 00:47:58;;;;;;;5.82;3.53;;;;;;;5.88;83.91;101803.72;4975473;28;20023;-87
2023/03/17 00:50:26;;;;;;;5.47;4.03;;;;;;;5.88;84.13;101806.28;4959058;28;20026;-86
2023/03/17 00:52:52;;;;;;;3.92;2.60;;;;;;;5.82;84.27;101797.81;4975618;28;20057;-86
2023/03/17 00:55:18;;;;;;;2.95;1.58;;;;;;;5.86;84.88;101804.59;4975193;28;20129;-86
2023/03/17 00:57:44;;;;;;;3.38;2.47;;;;;;;5.79;84.58;101808.09;4975043;28;20463;-86
2023/03/17 01:00:30;;;;;;;2.10;1.88;;;;;;;5.78;84.12;101808.97;4959200;28;20026;-87
2023/03/17 01:02:56;;;;;;;11.70;2.92;;;;;;;5.74;83.48;101814.13;4990931;28;20039;-86
2023/03/17 01:05:23;;;;;;;4.63;2.88;;;;;;;5.71;83.27;101813.31;4991442;28;20026;-86
2023/03/17 01:07:51;;;;;;;3.58;2.35;;;;;;;5.71;83.48;101813.31;4974994;28;20026;-86
2023/03/17 01:10:26;;;;;;;6.40;3.08;;;;;;;5.66;84.14;101812.50;4975479;28;20031;-86
2023/03/17 01:12:53;;;;;;;5.80;2.92;;;;;;;5.69;83.70;101810.75;4975180;28;20026;-86
2023/03/17 01:15:19;;;;;;;3.45;2.13;;;;;;;5.70;83.28;101824.44;4958886;28;20073;-86
2023/03/17 01:17:44;;;;;;;4.15;3.33;;;;;;;5.73;84.77;101827.00;4974708;28;20105;-86
2023/03/17 01:20:15;;;;;;;2.45;2.00;;;;;;;5.46;83.83;101795.56;4974913;28;20034;-86
2023/03/17 01:22:41;;;;;;;5.07;2.92;;;;;;;5.56;82.39;101813.47;4975140;28;20022;-86
2023/03/17 01:25:07;;;;;;;4.32;2.13;;;;;;;5.69;81.74;101839.00;4958421;28;20033;-86
2023/03/17 01:27:34;;;;;;;7.50;2.90;;;;;;;5.52;81.91;101829.75;4974802;28;20080;-85
2023/03/17 01:29:59;;;;;;;3.28;2.00;;;;;;;5.57;80.98;101839.09;4958697;28;20030;-86
2023/03/17 01:32:25;;;;;;;3.25;1.48;;;;;;;5.61;81.22;101847.66;4974757;28;20096;-86
2023/03/17 01:34:51;;;;;;;4.03;2.30;;;;;;;5.58;80.90;101851.06;4974504;28;20046;-86
2023/03/17 01:37:16;;;;;;;4.45;2.97;;;;;;;5.59;81.10;101849.34;4958459;28;20037;-86
2023/03/17 01:39:42;;;;;;;1.55;1.45;;;;;;;5.54;80.84;101833.16;4958318;28;20033;-86
2023/03/17 01:42:07;;;;;;;3.70;2.15;;;;;;;5.60;80.30;101856.19;4990745;28;20412;-86
2023/03/17 01:44:33;;;;;;;8.15;4.07;;;;;;;5.60;80.20;101848.50;4990527;28;20053;-86
2023/03/17 01:46:59;;;;;;;2.97;2.30;;;;;;;5.57;80.71;101857.06;4990647;28;20034;-86
2023/03/17 01:49:27;;;;;;;2.33;2.05;;;;;;;5.66;81.25;101874.13;4989867;28;20030;-86
2023/03/17 01:52:06;;;;;;;2.40;1.92;;;;;;;5.56;81.32;101863.06;4990777;28;20026;-86
2023/03/17 01:54:45;;;;;;;5.13;3.40;;;;;;;5.53;81.14;101872.53;4975863;28;20041;-86
2023/03/17 01:57:24;;;;;;;3.03;2.03;;;;;;;5.51;82.11;101866.56;4990520;28;20054;-86
2023/03/17 01:59:54;;;;;;;4.38;2.25;;;;;;;5.45;81.35;101868.31;4990554;28;20033;-86
2023/03/17 02:02:23;;;;;;;1.88;1.60;;;;;;;5.47;81.54;101874.28;4974158;28;20057;-86
2023/03/17 02:04:51;;;;;;;2.88;2.35;;;;;;;5.17;81.62;101839.44;4990099;28;20073;-86
2023/03/17 02:07:21;;;;;;;1.20;1.10;;;;;;;5.44;81.95;101882.00;4990099;28;20159;-86
2023/03/17 02:09:46;;;;;;;2.83;2.20;;;;;;;5.33;81.90;101876.09;4958677;28;20038;-86
2023/03/17 02:12:12;;;;;;;2.22;1.70;;;;;;;5.25;82.03;101864.19;4990149;28;20617;-86
2023/03/17 02:14:38;;;;;;;2.97;2.30;;;;;;;5.24;82.33;101873.59;4990302;28;20467;-86
2023/03/17 02:17:03;;;;;;;4.57;2.13;;;;;;;5.34;82.16;101894.91;4957669;28;20532;-86
2023/03/17 02:19:29;;;;;;;2.65;1.75;;;;;;;5.33;82.58;101888.94;4973914;28;20038;-86
2023/03/17 02:21:56;;;;;;;7.10;2.80;;;;;;;5.28;82.55;101869.28;4989904;28;20034;-86
2023/03/17 02:24:22;;;;;;;4.75;2.97;;;;;;;5.46;82.33;101895.66;4974050;28;20034;-86
2023/03/17 02:26:48;;;;;;;2.15;1.70;;;;;;;5.44;81.81;101894.84;4991636;28;20037;-86
2023/03/17 02:29:14;;;;;;;2.58;2.00;;;;;;;5.27;81.96;101877.84;4958013;28;20026;-86
2023/03/17 02:31:39;;;;;;;3.67;1.92;;;;;;;5.30;81.76;101886.38;4957992;28;20019;-86
2023/03/17 02:34:05;;;;;;;2.67;1.50;;;;;;;5.19;81.86;101886.44;4989947;28;20022;-86
2023/03/17 02:36:30;;;;;;;3.65;2.85;;;;;;;5.33;82.37;101903.47;4973501;28;20069;-86
2023/03/17 02:38:56;;;;;;;4.40;2.92;;;;;;;5.32;81.84;101905.19;4990057;28;20035;-85
2023/03/17 02:41:22;;;;;;;1.42;1.30;;;;;;;5.35;82.46;101918.00;4973668;28;20030;-85
2023/03/17 02:43:47;;;;;;;9.95;2.20;;;;;;;5.24;81.94;101914.66;4973860;28;20483;-85
2023/03/17 02:46:13;;;;;;;3.47;2.00;;;;;;;5.09;82.68;101899.34;4989708;28;20528;-85
2023/03/17 02:48:38;;;;;;;2.10;1.45;;;;;;;4.95;82.69;101867.81;4973843;28;20030;-85
2023/03/17 02:51:04;;;;;;;5.57;3.58;;;;;;;5.14;83.12;101900.19;4973445;28;20057;-85
2023/03/17 02:53:30;;;;;;;2.33;1.40;;;;;;;5.25;83.29;101912.94;4989699;28;20034;-86
2023/03/17 02:55:56;;;;;;;1.52;1.27;;;;;;;5.18;83.26;101900.13;4973745;28;20049;-85
2023/03/17 02:58:22;;;;;;;3.05;1.95;;;;;;;5.21;82.84;101901.84;4973818;28;20030;-86
2023/03/17 03:00:48;;;;;;;1.85;1.65;;;;;;;5.28;82.79;101913.75;4974736;28;20026;-86
2023/03/17 03:03:14;;;;;;;3.05;1.77;;;;;;;5.23;83.35;101906.97;4961471;28;20360;-86
2023/03/17 03:05:40;;;;;;;2.13;1.73;;;;;;;5.19;82.52;101903.56;4977022;28;20403;-85
2023/03/17 03:08:05;;;;;;;2.17;1.52;;;;;;;5.21;82.81;101906.97;4977358;28;20451;-85
2023/03/17 03:10:31;;;;;;;3.38;2.10;;;;;;;5.09;83.38;101895.06;4977308;28;20034;-85
2023/03/17 03:12:56;;;;;;;2.70;1.73;;;;;;;5.19;83.54;101901.84;4993650;28;20088;-86
2023/03/17 03:15:22;;;;;;;2.47;2.28;;;;;;;5.27;83.88;101919.75;4977235;28;20389;-85
2023/03/17 03:17:47;;;;;;;6.13;3.17;;;;;;;5.35;83.50;101923.13;4960956;28;20038;-85
2023/03/17 03:20:13;;;;;;;3.70;2.53;;;;;;;5.34;83.22;101921.44;4976826;28;20057;-85
2023/03/17 03:22:39;;;;;;;7.63;2.42;;;;;;;5.38;83.57;101928.22;4977142;28;20100;-85
2023/03/17 03:25:06;;;;;;;7.13;4.10;;;;;;;5.21;83.29;101906.97;4976771;28;20031;-85
2023/03/17 03:27:31;;;;;;;4.28;1.88;;;;;;;5.33;83.95;101909.47;4961024;28;20117;-85
2023/03/17 03:29:57;;;;;;;2.72;2.03;;;;;;;5.48;82.53;101929.88;4960821;28;20124;-85
2023/03/17 03:32:22;;;;;;;3.10;1.95;;;;;;;5.40;83.22;101931.63;4976852;28;20026;-85
2023/03/17 03:34:48;;;;;;;3.58;2.78;;;;;;;5.45;83.44;101932.47;4976146;28;20050;-86
2023/03/17 03:37:14;;;;;;;3.65;2.35;;;;;;;5.38;83.09;101928.22;4976664;28;20045;-85
2023/03/17 03:39:39;;;;;;;21.25;3.85;;;;;;;5.44;82.64;101946.16;4992718;28;20164;-85
2023/03/17 03:42:05;;;;;;;5.75;3.22;;;;;;;5.38;83.09;101933.38;4992724;28;20038;-86
2023/03/17 03:44:31;;;;;;;4.13;2.95;;;;;;;5.33;83.40;101930.00;4977123;28;20153;-85
2023/03/17 03:46:56;;;;;;;4.75;2.97;;;;;;;5.26;83.29;101923.19;4993754;28;20078;-85
2023/03/17 03:49:23;;;;;;;3.85;2.35;;;;;;;5.31;83.25;101938.53;4992502;28;20390;-85
2023/03/17 03:51:48;;;;;;;4.65;3.90;;;;;;;5.39;83.64;101947.91;4992835;28;20566;-86
2023/03/17 03:54:14;;;;;;;1.92;1.77;;;;;;;5.40;82.81;101928.22;4976586;28;20054;-87
2023/03/17 03:56:39;;;;;;;3.22;1.80;;;;;;;5.55;82.13;101929.84;4993000;28;20030;-86
2023/03/17 03:59:05;;;;;;;4.60;3.47;;;;;;;5.67;82.19;101955.41;4976213;28;20030;-86
2023/03/17 04:01:30;;;;;;;5.00;2.88;;;;;;;5.66;81.94;101953.72;4992613;28;20038;-83
2023/03/17 04:03:56;;;;;;;3.72;2.72;;;;;;;5.54;82.18;101940.97;4975811;28;20420;-83
2023/03/17 04:06:21;;;;;;;6.95;3.28;;;;;;;5.63;82.21;101964.00;4992258;28;20034;-83
2023/03/17 04:08:47;;;;;;;4.90;3.30;;;;;;;5.55;82.06;101950.38;4960200;28;20030;-83
2023/03/17 04:11:12;;;;;;;6.65;3.75;;;;;;;5.58;82.19;101965.75;4975527;28;20030;-83
2023/03/17 04:13:37;;;;;;;3.53;2.92;;;;;;;5.30;81.79;101929.13;4976161;28;20034;-83
2023/03/17 04:16:03;;;;;;;6.25;3.25;;;;;;;5.47;82.05;101964.09;4992304;28;20038;-83
2023/03/17 04:18:30;;;;;;;7.07;3.58;;;;;;;5.52;82.12;101965.81;4975521;28;20624;-83
2023/03/17 04:20:56;;;;;;;9.15;4.60;;;;;;;5.47;82.78;101969.25;4976368;28;20041;-83
2023/03/17 04:23:21;;;;;;;4.22;2.90;;;;;;;5.44;82.35;101976.13;4975852;28;20101;-83
2023/03/17 04:25:49;;;;;;;7.90;4.13;;;;;;;5.50;83.01;101970.06;4989694;28;20022;-85
2023/03/17 04:28:16;;;;;;;6.55;3.88;;;;;;;5.51;82.57;101980.34;4975962;28;20121;-85
2023/03/17 04:30:41;;;;;;;4.05;2.78;;;;;;;5.56;82.42;101994.00;4975758;28;20613;-84
2023/03/17 04:33:07;;;;;;;2.85;1.90;;;;;;;5.51;82.56;101989.78;4991573;28;20041;-85
2023/03/17 04:35:33;;;;;;;4.47;2.40;;;;;;;5.49;81.76;101982.06;4975724;28;20505;-85
2023/03/17 04:37:58;;;;;;;4.47;2.88;;;;;;;5.47;82.85;101989.78;4993119;28;20026;-85
2023/03/17 04:40:24;;;;;;;7.00;4.40;;;;;;;5.40;82.81;101982.97;4959602;28;20038;-86
2023/03/17 04:42:50;;;;;;;3.90;3.30;;;;;;;5.44;82.30;101997.50;4975533;28;20038;-88
2023/03/17 04:45:15;;;;;;;6.72;4.55;;;;;;;5.47;83.18;102009.44;4991471;28;20485;-87
2023/03/17 04:47:41;;;;;;;5.80;3.33;;;;;;;5.40;82.74;102003.50;4958817;28;20030;-88
2023/03/17 04:50:07;;;;;;;14.98;4.30;;;;;;;5.39;83.88;102008.63;4975448;28;20499;-87
2023/03/17 04:52:34;;;;;;;4.60;3.42;;;;;;;5.33;83.90;102017.25;4991690;28;20026;-87
2023/03/17 04:54:59;;;;;;;5.07;3.75;;;;;;;5.33;84.25;102011.25;4975480;28;20030;-87
2023/03/17 04:57:24;;;;;;;4.47;2.53;;;;;;;5.25;84.31;102002.75;4991559;28;20097;-87
2023/03/17 04:59:50;;;;;;;3.80;2.42;;;;;;;5.40;84.57;102016.31;4958615;28;20034;-87
2023/03/17 05:02:17;;;;;;;4.15;3.15;;;;;;;5.40;85.05;102023.16;4974076;28;20085;-90
2023/03/17 05:04:44;;;;;;;6.78;4.93;;;;;;;5.37;84.10;101998.38;4972831;28;20034;-89
2023/03/17 05:07:10;;;;;;;6.97;5.00;;;;;;;5.48;83.60;102022.28;4991098;28;20049;-84
2023/03/17 05:09:36;;;;;;;8.02;5.20;;;;;;;5.46;83.93;102013.72;4974963;28;20034;-86
2023/03/17 05:12:02;;;;;;;11.35;4.53;;;;;;;5.57;84.02;102025.66;4991156;28;20026;-85
2023/03/17 05:14:27;;;;;;;4.07;3.15;;;;;;;5.61;82.99;102032.50;4992100;28;20049;-85
2023/03/17 05:16:53;;;;;;;3.03;2.50;;;;;;;5.60;83.11;102020.50;4989999;28;20080;-83
2023/03/17 05:19:19;;;;;;;4.97;2.60;;;;;;;5.71;82.29;102039.28;4988786;28;20512;-90
2023/03/17 05:21:46;;;;;;;3.00;2.35;;;;;;;5.58;82.16;102048.75;4973628;28;20026;-85
2023/03/17 05:24:12;;;;;;;3.85;3.15;;;;;;;5.52;81.71;102040.25;4988974;28;20122;-85
2023/03/17 05:26:37;;;;;;;2.92;2.53;;;;;;;5.47;83.94;102046.25;4974855;28;20121;-88
2023/03/17 05:29:03;;;;;;;7.35;4.82;;;;;;;5.43;83.66;102044.56;4974671;28;20034;-89
2023/03/17 05:31:29;;;;;;;6.18;3.80;;;;;;;5.54;84.10;102057.34;4991342;28;20089;-91
2023/03/17 05:33:55;;;;;;;7.35;2.88;;;;;;;5.28;83.48;102002.72;4976507;28;20037;-92
2023/03/17 05:36:21;;;;;;;6.22;4.82;;;;;;;5.54;83.60;102061.63;4990138;28;20133;-93
2023/03/17 05:38:46;;;;;;;5.05;3.50;;;;;;;5.47;83.53;102043.66;4989820;28;20035;-91
2023/03/17 05:41:12;;;;;;;5.00;3.78;;;;;;;5.53;83.84;102053.06;4958251;28;20547;-93
2023/03/17 05:43:38;;;;;;;7.82;5.95;;;;;;;5.53;83.10;102054.78;4990200;28;20508;-88
2023/03/17 05:46:04;;;;;;;6.72;3.80;;;;;;;5.54;83.07;102056.47;4990250;28;20038;-92
2023/03/17 05:48:30;;;;;;;7.10;4.00;;;;;;;5.58;83.13;102053.88;4975010;28;20084;-84
2023/03/17 05:50:55;;;;;;;8.13;3.78;;;;;;;5.47;83.11;102048.81;4974050;28;20022;-84
2023/03/17 05:53:21;;;;;;;7.43;4.25;;;;;;;5.57;83.58;102056.47;4974486;28;20046;-95
2023/03/17 05:55:46;;;;;;;7.65;4.07;;;;;;;5.64;83.19;102063.28;4973827;28;20496;-90
2023/03/17 05:58:14;;;;;;;12.07;7.07;;;;;;;5.58;83.07;102063.28;4974146;28;20056;-83
2023/03/17 06:00:40;;;;;;;16.80;5.38;;;;;;;5.62;83.32;102065.84;4974443;28;20481;-88
2023/03/17 06:03:06;;;;;;;4.88;2.67;;;;;;;5.72;82.90;102067.50;4974348;28;20041;-90
2023/03/17 06:05:32;;;;;;;4.63;4.07;;;;;;;5.60;82.98;102066.69;4990972;28;20492;-83
2023/03/17 06:07:57;;;;;;;2.85;2.40;;;;;;;5.78;83.11;102089.72;4989991;28;20037;-84
2023/03/17 06:10:23;;;;;;;5.05;2.42;;;;;;;5.74;83.14;102077.78;4990028;28;20508;-87
2023/03/17 06:12:48;;;;;;;4.47;2.55;;;;;;;5.66;82.96;102070.09;4957695;28;20077;-85
2023/03/17 06:15:15;;;;;;;8.32;4.63;;;;;;;5.82;82.65;102088.00;4989801;28;20408;-88
2023/03/17 06:17:41;;;;;;;7.45;4.22;;;;;;;5.79;82.61;102082.84;4973738;28;20026;-84
2023/03/17 06:20:07;;;;;;;9.48;4.97;;;;;;;5.76;82.95;102088.88;4973335;28;20084;-85
2023/03/17 06:22:32;;;;;;;6.97;5.10;;;;;;;5.85;82.29;102108.53;4989467;28;20056;-85
2023/03/17 06:24:58;;;;;;;6.90;4.20;;;;;;;5.85;81.76;102108.53;4992347;28;20042;-89
2023/03/17 06:27:23;;;;;;;8.68;5.70;;;;;;;5.71;81.69;102121.44;4974335;28;20146;-87
2023/03/17 06:29:49;;;;;;;10.43;6.95;;;;;;;5.42;82.81;102068.53;4973692;28;20077;-86
2023/03/17 06:32:14;;;;;;;13.85;5.78;;;;;;;5.73;83.17;102109.44;4986499;28;20358;-92
2023/03/17 06:34:41;;;;;;;8.60;6.65;;;;;;;5.72;82.73;102121.44;4992101;28;20065;-96
2023/03/17 06:37:07;;;;;;;18.90;8.65;;;;;;;5.72;82.98;102113.72;4978169;28;20057;-88
2023/03/17 06:39:33;;;;;;;13.95;8.70;;;;;;;6.06;83.28;102112.69;4993664;28;20623;-83
2023/03/17 06:41:58;;;;;;;15.48;9.60;;;;;;;6.19;81.59;102120.31;4993332;28;20030;-85
2023/03/17 06:44:24;;;;;;;18.85;5.20;;;;;;;6.23;81.56;102121.16;4960714;28;20030;-87
2023/03/17 06:46:50;;;;;;;12.50;7.38;;;;;;;6.21;80.95;102117.75;5008956;28;20085;-82
2023/03/17 06:49:15;;;;;;;29.33;8.43;;;;;;;6.32;81.18;102121.09;4977952;28;20093;-83
2023/03/17 06:51:41;;;;;;;38.90;14.35;;;;;;;6.23;80.74;102100.59;4977458;28;20049;-83
2023/03/17 06:54:07;;;;;;;17.80;11.35;;;;;;;6.25;80.30;102109.13;4993277;28;20110;-82
2023/03/17 06:56:33;;;;;;;20.38;10.63;;;;;;;6.19;81.16;102114.31;4993586;28;20026;-83
2023/03/17 06:58:58;;;;;;;10.35;6.80;;;;;;;6.14;79.64;102092.94;4960620;28;20026;-83
2023/03/17 07:01:27;;;;;;;8.10;4.93;;;;;;;6.25;80.20;102115.13;4992524;28;20378;-92
2023/03/17 07:03:53;;;;;;;7.78;4.30;;;;;;;6.28;80.93;102109.97;4960896;28;20031;-84
2023/03/17 07:06:18;;;;;;;10.45;6.00;;;;;;;6.36;80.40;102102.19;4992705;28;20030;-89
2023/03/17 07:08:45;;;;;;;5.38;4.32;;;;;;;6.35;80.51;102118.50;4992831;28;20492;-85
2023/03/17 07:11:11;;;;;;;9.52;4.88;;;;;;;6.21;80.54;102107.47;4994859;28;20100;-93
2023/03/17 07:13:37;;;;;;;9.43;6.35;;;;;;;6.32;80.21;102111.66;4994467;28;20085;-89
2023/03/17 07:16:03;;;;;;;7.43;4.60;;;;;;;6.36;79.82;102109.91;4993054;28;20029;-84
2023/03/17 07:18:32;;;;;;;8.05;5.07;;;;;;;6.28;79.36;102115.09;4992213;28;20038;-85
2023/03/17 07:21:01;;;;;;;6.20;4.72;;;;;;;6.38;79.41;102110.75;4977071;28;20037;-88
2023/03/17 07:23:26;;;;;;;9.10;5.15;;;;;;;6.47;79.64;102120.94;5012367;28;20026;-86
2023/03/17 07:25:52;;;;;;;6.05;4.60;;;;;;;6.49;78.80;102114.09;4978890;28;20181;-89
2023/03/17 07:28:18;;;;;;;7.32;4.00;;;;;;;6.65;79.25;102111.38;4961017;28;20035;-87
2023/03/17 07:30:45;;;;;;;10.27;6.20;;;;;;;6.95;78.67;102113.66;4993092;28;20511;-90
2023/03/17 07:33:16;;;;;;;8.70;5.32;;;;;;;6.81;76.65;102105.25;4995434;28;20041;-87
2023/03/17 07:35:42;;;;;;;12.90;6.30;;;;;;;7.06;77.24;102106.69;4994273;28;20050;-91
2023/03/17 07:38:08;;;;;;;11.27;4.88;;;;;;;7.40;76.99;102114.03;4994101;28;20026;-84
2023/03/17 07:40:34;;;;;;;7.78;4.82;;;;;;;7.31;75.57;102111.56;4961806;28;20034;-87
2023/03/17 07:43:00;;;;;;;11.95;5.75;;;;;;;7.14;75.19;102110.03;4962600;28;20017;-90
2023/03/17 07:45:26;;;;;;;8.10;5.38;;;;;;;7.12;73.99;102110.91;4992112;28;20038;-85
2023/03/17 07:47:52;;;;;;;5.68;3.80;;;;;;;7.03;73.69;102127.31;4975125;28;20022;-85
2023/03/17 07:50:19;;;;;;;9.98;5.68;;;;;;;7.05;74.56;102110.13;4993399;28;20030;-91
2023/03/17 07:52:44;;;;;;;11.27;4.93;;;;;;;7.07;74.53;102133.25;4976481;28;20034;-92
2023/03/17 07:55:11;;;;;;;9.07;6.32;;;;;;;7.02;76.56;102125.59;4961448;28;20023;-86
2023/03/17 07:57:37;;;;;;;9.02;6.05;;;;;;;6.99;76.27;102110.22;4994340;28;20052;-83
2023/03/17 08:00:03;;;;;;;8.38;4.70;;;;;;;6.99;75.37;102135.94;4977729;28;20102;-85
2023/03/17 08:02:30;;;;;;;6.07;4.60;;;;;;;7.04;77.04;102139.31;4977933;28;20034;-90
2023/03/17 08:04:56;;;;;;;5.65;3.40;;;;;;;7.02;77.45;102141.03;4973016;28;20037;-82
2023/03/17 08:07:21;;;;;;;8.48;4.95;;;;;;;6.99;76.39;102141.09;4991019;28;20030;-88
2023/03/17 08:09:46;;;;;;;7.65;4.60;;;;;;;7.06;76.07;102157.28;4992530;28;20042;-90
2023/03/17 08:12:12;;;;;;;11.25;5.20;;;;;;;7.01;76.74;102157.34;4975267;28;20030;-82
2023/03/17 08:14:38;;;;;;;6.05;3.78;;;;;;;7.10;76.74;102157.25;4991166;28;20194;-86
2023/03/17 08:17:03;;;;;;;6.65;3.92;;;;;;;7.24;76.09;102166.56;4991566;28;20037;-86
2023/03/17 08:19:29;;;;;;;3.70;2.67;;;;;;;7.35;75.28;102169.88;4974383;28;20030;-86
2023/03/17 08:21:55;;;;;;;7.90;4.00;;;;;;;7.36;74.41;102171.56;4975281;28;20034;-87
2023/03/17 08:24:21;;;;;;;19.27;6.25;;;;;;;7.36;73.99;102162.13;4991194;28;20038;-91
2023/03/17 08:26:48;;;;;;;14.30;5.22;;;;;;;7.44;73.79;102175.75;4975399;28;20033;-87
2023/03/17 08:29:14;;;;;;;7.45;4.10;;;;;;;7.38;73.00;102154.41;4959343;28;20026;-85
2023/03/17 08:31:40;;;;;;;9.48;4.45;;;;;;;7.38;73.44;102156.97;4991755;28;20487;-89
2023/03/17 08:34:05;;;;;;;6.20;3.45;;;;;;;7.32;72.94;102167.34;4991255;28;20034;-84
2023/03/17 08:36:31;;;;;;;7.63;4.43;;;;;;;7.40;73.52;102162.97;4991856;28;20065;-86
2023/03/17 08:38:57;;;;;;;4.63;4.15;;;;;;;7.43;73.66;102173.22;4990757;28;20026;-85
2023/03/17 08:41:23;;;;;;;6.13;3.60;;;;;;;7.34;73.72;102160.44;4974342;28;20495;-87
2023/03/17 08:43:49;;;;;;;7.18;3.70;;;;;;;7.44;74.53;102169.75;4959350;28;20069;-90
2023/03/17 08:46:17;;;;;;;11.77;4.60;;;;;;;7.40;74.24;102168.09;4993742;28;20034;-87
2023/03/17 08:48:45;;;;;;;7.40;4.85;;;;;;;7.44;74.34;102169.75;4974889;28;20034;-87
2023/03/17 08:51:11;;;;;;;7.50;4.55;;;;;;;7.43;74.20;102173.22;5003638;28;20038;-86
2023/03/17 08:53:36;;;;;;;14.40;10.60;;;;;;;7.41;74.38;102160.34;4971436;28;20038;-85
2023/03/17 08:56:03;;;;;;;10.50;6.22;;;;;;;7.64;73.80;102175.53;4991473;28;20407;-91
2023/03/17 08:58:29;;;;;;;9.02;5.45;;;;;;;7.63;72.74;102160.09;4959317;28;20026;-87
2023/03/17 09:00:57;;;;;;;10.57;6.18;;;;;;;7.69;73.30;102171.19;4975606;28;20019;-89
2023/03/17 09:03:23;;;;;;;11.23;5.20;;;;;;;7.58;72.77;102151.59;4974940;28;20062;-86
2023/03/17 09:05:50;;;;;;;12.13;5.82;;;;;;;7.75;73.17;102165.09;4991502;28;20042;-89
2023/03/17 09:08:15;;;;;;;8.35;4.57;;;;;;;7.66;71.92;102155.75;4974926;28;20026;-88
2023/03/17 09:10:41;;;;;;;9.95;3.65;;;;;;;7.77;72.69;102173.69;4969875;28;20034;-89
2023/03/17 09:13:07;;;;;;;6.47;3.78;;;;;;;7.73;72.86;102151.38;4991937;28;20030;-91
2023/03/17 09:15:33;;;;;;;9.23;3.45;;;;;;;7.85;73.10;102170.97;4975505;28;20030;-93
2023/03/17 09:17:58;;;;;;;4.45;3.00;;;;;;;7.88;71.54;102184.69;4989923;28;20041;-85
2023/03/17 09:20:24;;;;;;;7.78;4.60;;;;;;;7.83;71.71;102180.47;4956736;28;20026;-85
2023/03/17 09:22:50;;;;;;;11.23;3.92;;;;;;;7.94;72.34;102178.59;4972508;28;20038;-87
2023/03/17 09:25:15;;;;;;;31.40;16.45;;;;;;;7.88;72.41;102178.69;4957794;28;20042;-85
2023/03/17 09:27:41;;;;;;;11.32;5.82;;;;;;;7.75;71.55;102176.25;4973861;28;20040;-86
2023/03/17 09:30:09;;;;;;;6.75;5.28;;;;;;;7.76;72.92;102189.97;4956793;28;20471;-84
2023/03/17 09:32:34;;;;;;;10.55;8.13;;;;;;;7.62;71.93;102172.13;4958298;28;20034;-89
2023/03/17 09:35:00;;;;;;;9.65;4.85;;;;;;;7.70;71.98;102172.03;4973957;28;20424;-85
2023/03/17 09:37:26;;;;;;;4.45;3.03;;;;;;;7.82;71.88;102181.34;4987665;28;20106;-83
2023/03/17 09:39:51;;;;;;;9.68;5.53;;;;;;;7.88;71.91;102191.56;4989877;28;20030;-85
2023/03/17 09:42:42;;;;;;;11.95;5.25;;;;;;;7.82;71.80;102179.59;4973492;28;20410;-83
2023/03/17 09:45:17;;;;;;;11.50;5.45;;;;;;;7.79;72.70;102160.78;4988079;28;20042;-87
2023/03/17 09:48:17;;;;;;;9.65;5.53;;;;;;;7.78;72.11;102172.81;4974454;28;20058;-89
2023/03/17 09:51:03;;;;;;;8.75;4.57;;;;;;;7.70;72.42;102136.81;4989941;28;20547;-88
2023/03/17 09:53:41;;;;;;;13.57;4.63;;;;;;;7.88;71.87;102174.38;4988057;28;20033;-86
2023/03/17 09:56:11;;;;;;;11.60;5.22;;;;;;;7.92;71.29;102182.91;4975144;28;20030;-86
2023/03/17 09:58:36;;;;;;;8.75;4.15;;;;;;;7.73;71.80;102183.16;4957644;28;20737;-87
2023/03/17 10:01:04;;;;;;;8.70;3.90;;;;;;;7.84;72.37;102180.44;4990170;28;20089;-88
2023/03/17 10:03:29;;;;;;;6.30;3.95;;;;;;;7.91;72.24;102171.75;4990401;28;20041;-88
2023/03/17 10:06:20;;;;;;;7.35;3.22;;;;;;;8.20;72.69;102163.63;4973296;28;20097;-85
2023/03/17 10:08:56;;;;;;;15.70;3.67;;;;;;;8.40;72.00;102170.25;4976767;28;20113;-89
2023/03/17 10:11:22;;;;;;;9.63;4.93;;;;;;;8.43;70.04;102180.50;4973062;28;20432;-83
2023/03/17 10:13:56;;;;;;;16.73;4.82;;;;;;;8.12;70.01;102138.81;4973017;28;20034;-88
2023/03/17 10:16:47;;;;;;;8.57;4.50;;;;;;;8.39;69.18;102174.56;4969857;28;20019;-89
2023/03/17 10:19:33;;;;;;;13.65;6.80;;;;;;;8.33;70.12;102159.97;4970951;28;20046;-85
2023/03/17 10:22:04;;;;;;;7.18;3.78;;;;;;;8.50;68.36;102171.81;4992556;28;20034;-87
2023/03/17 10:24:31;;;;;;;10.27;4.53;;;;;;;8.39;68.93;102158.22;4974093;28;20023;-86
2023/03/17 10:26:57;;;;;;;5.18;3.97;;;;;;;8.36;69.55;102148.81;4957238;28;20034;-87
2023/03/17 10:29:23;;;;;;;7.28;3.70;;;;;;;8.40;68.53;102171.09;4975177;28;20137;-87
2023/03/17 10:31:49;;;;;;;10.95;5.45;;;;;;;8.52;68.84;102170.06;4988360;28;20524;-86
2023/03/17 10:34:30;;;;;;;5.35;3.05;;;;;;;8.65;67.82;102165.53;4978240;28;20041;-90
2023/03/17 10:37:08;;;;;;;10.95;7.32;;;;;;;8.63;67.53;102161.25;4985917;28;20030;-92
2023/03/17 10:39:41;;;;;;;12.07;6.72;;;;;;;8.59;67.51;102151.03;4973326;28;20041;-89
2023/03/17 10:42:08;;;;;;;7.90;5.43;;;;;;;8.62;67.74;102156.13;4959833;28;20039;-94
2023/03/17 10:44:55;;;;;;;15.63;7.82;;;;;;;8.47;68.14;102112.53;4975348;28;20614;-86
2023/03/17 10:47:32;;;;;;;17.15;7.20;;;;;;;8.84;67.27;102154.88;4990480;28;20046;-88
2023/03/17 10:50:21;;;;;;;16.63;5.90;;;;;;;9.03;67.13;102160.56;4989704;28;20041;-91
2023/03/17 10:53:04;;;;;;;13.20;7.43;;;;;;;9.06;67.46;102144.19;4982588;28;20042;-84
2023/03/17 10:55:34;;;;;;;15.68;8.65;;;;;;;9.07;66.44;102143.31;4991627;28;20109;-90
2023/03/17 10:58:09;;;;;;;27.17;8.80;;;;;;;9.11;66.13;102119.97;4989691;28;20042;-87
2023/03/17 11:00:35;;;;;;;10.68;6.78;;;;;;;9.26;66.79;102134.34;4989228;28;20095;-91
2023/03/17 11:03:08;;;;;;;8.27;4.10;;;;;;;9.55;65.88;102138.06;4987757;28;20034;-85
2023/03/17 11:05:37;;;;;;;6.35;4.20;;;;;;;9.52;63.91;102132.94;4968619;28;20026;-87
2023/03/17 11:08:15;;;;;;;6.60;4.13;;;;;;;9.55;63.79;102127.75;4973700;28;20023;-86
2023/03/17 11:10:41;;;;;;;4.32;3.85;;;;;;;9.29;64.66;102115.34;4988905;28;20034;-84
2023/03/17 11:13:07;;;;;;;7.00;4.63;;;;;;;9.58;64.68;102140.59;4987994;28;20034;-86
2023/03/17 11:15:40;;;;;;;6.15;4.53;;;;;;;9.69;64.84;102128.28;4973050;28;20034;-82
2023/03/17 11:18:13;;;;;;;10.50;3.85;;;;;;;9.88;63.91;102132.19;4987088;28;20496;-86
2023/03/17 11:20:38;;;;;;;5.25;3.30;;;;;;;10.03;65.17;102129.25;4986061;28;20024;-84
2023/03/17 11:23:09;;;;;;;8.57;4.03;;;;;;;10.11;63.13;102120.47;4999325;28;20034;-87
2023/03/17 11:25:38;;;;;;;8.15;4.30;;;;;;;10.08;63.49;102118.81;4992368;28;20418;-86
2023/03/17 11:28:18;;;;;;;5.10;2.55;;;;;;;10.19;63.07;102124.56;4976827;28;20154;-90
2023/03/17 11:30:47;;;;;;;4.95;3.03;;;;;;;10.24;62.65;102116.75;4991759;28;20492;-90
2023/03/17 11:33:48;;;;;;;4.93;2.92;;;;;;;10.31;63.38;102111.38;4975538;28;20511;-89